EGNR/CEG METAR and TAF weather

Enter ICAO airport designator
Station Type Date Time Source
EGNR METAR 2020/11/25 19:20 UTC NOAA

EGNR 251920Z VRB01KT 9999 SCT040 06/02 Q1017


Station Type Date Time Source
EGNR Decoded METAR 2020/11/25 19:20 UTC NOAA

Hawarden, United Kingdom (EGNR) 53-10N 002-59W 0M
Nov 25, 2020 - 02:20 PM EST / 2020.11.25 1920 UTC
Wind: Variable at 1 MPH (1 KT):0
Visibility: greater than 7 mile(s):0
Sky conditions: partly cloudy
Temperature: 42 F (6 C)
Dew Point: 35 F (2 C)
Relative Humidity: 75%
Pressure (altimeter): 30.03 in. Hg (1017 hPa)
ob: EGNR 251920Z VRB01KT 9999 SCT040 06/02 Q1017
cycle: 19

Station Type Date Time Source
EGNR TAF 2016/01/23 12:00 UTC NOAA

TAF EGNR 231059Z 2312/2319 15009KT 9999 FEW020
BECMG 2316/2319 BKN014
TEMPO 2317/2319 6000 RA BKN008

Example: see airport list